Kellenhusen, Germany

6:56 AM CEST on March 30, 2015 (GMT +0200)
ostsee | | Change Station
CLOSE
Current Station
Personal Weather Station
Location: Heiligenhafen, SCHLESWIG-HOLSTEIN
Elevation: 26 ft
Nearby Weather Stations

Elev 26 ft 54.37 °N, 10.99 °E | Updated 41 seconds ago

Mostly Cloudy
Mostly Cloudy
41.5 °F
Feels Like 36 °F
N
8.3
Wind Variable Wind from WNW
Gusts 9.8 mph

Today
High -- | Low -- °F
--% Chance of Precip.
Yesterday
High -- | Low -- °F
Precip. -- in
6:54 AM 7:47 PM
Waxing Gibbous, 77% visible
Pressure 29.12 in
Visibility 6.2 miles
Clouds Scattered Clouds 2000 ft
Mostly Cloudy 3300 ft
Windchill 36 °F
Dew Point 39 °F
Humidity 92%
Rainfall 0.18 in
Snow Depth Not available.
UV 0.0 out of 12
Pollen Not available.
Air Quality Not available.
Flu Activity Not available.
METAR EDHL 300450Z 27011KT 230V310 9999 SCT020 BKN033 05/03 Q0986 RMK ATIS ALF

More Conditions Fewer Conditions

Pressure 29.12 in
Visibility 6.2 miles
Clouds Scattered Clouds 2000 ft
Mostly Cloudy 3300 ft
Windchill 36 °F
Dew Point 39 °F
Humidity 92%
Rainfall 0.18 in
Snow Depth Not available.
UV 0.0 out of 12
Pollen Not available.
Air Quality Not available.
Flu Activity Not available.
METAR EDHL 300450Z 27011KT 230V310 9999 SCT020 BKN033 05/03 Q0986 RMK ATIS ALF

More Conditions Fewer Conditions

10-Day Weather Forecast

Almanac

Astronomy

Mar. 30, 2015 Rise Set
Actual Time
Civil Twilight
Nautical Twilight
Astronomical Twilight
Moon
Length of Visible Light
Length of Day
Tomorrow will be .
, % of the Moon is Illuminated

Today's Extremes

Country Highs Country Lows

Community

WunderPhotos

Upload Photos

1,809,436 photos uploaded!

WunderBlogs® & News

Nearby

Air Quality

  Air Quality AQ Index Pollutant
Not available.

Snow Depth

Station Depth Elevation

Earthquake Activity

City Distance Mag. Time & Date
Minimum magnitude displayed is 2.5.

Coastal Water Temperatures

Place Temperature

Stations

Nearby Weather Stations

Station Location Temp. Windchill Dew Point Humidity Wind Precip. Elev Updated Type